Time;durP1;ratioP1;P1;durP2;ratioP2;P2;SDS_P1;SDS_P2;PMS_P1;PMS_P2;Temp;Humidity;BMP_temperature;BMP_pressure;BME280_temperature;BME280_humidity;BME280_pressure;Samples;Min_cycle;Max_cycle;Signal;HPM_P1;HPM_P2
2023/07/09 00:01:19;;;;;;;5.30;1.80;;;;;;;18.47;100.00;100284.52;105643;1253;72570;-45
2023/07/09 00:03:51;;;;;;;2.80;2.20;;;;;;;18.46;100.00;100279.85;105666;1259;64214;-45
2023/07/09 00:06:19;;;;;;;1.90;1.60;;;;;;;18.45;100.00;100281.13;105721;1257;71453;-45
2023/07/09 00:08:49;;;;;;;4.10;1.60;;;;;;;18.43;100.00;100277.55;105672;1254;60559;-45
2023/07/09 00:11:16;;;;;;;2.80;1.60;;;;;;;18.41;100.00;100280.64;105649;1259;60795;-46
2023/07/09 00:13:44;;;;;;;2.20;1.50;;;;;;;18.41;100.00;100288.51;105722;1259;72560;-43
2023/07/09 00:16:19;;;;;;;5.40;1.50;;;;;;;18.40;100.00;100289.59;105681;1253;63871;-45
2023/07/09 00:18:48;;;;;;;3.40;1.50;;;;;;;18.40;100.00;100287.14;105652;1257;71375;-45
2023/07/09 00:21:17;;;;;;;2.10;1.70;;;;;;;18.41;100.00;100281.86;105694;1259;60502;-44
2023/07/09 00:23:45;;;;;;;3.70;1.80;;;;;;;18.42;100.00;100283.55;105770;1257;60442;-43
2023/07/09 00:26:13;;;;;;;5.90;1.90;;;;;;;18.44;100.00;100286.77;105617;1259;73805;-44
2023/07/09 00:28:42;;;;;;;3.40;1.60;;;;;;;18.46;100.00;100284.39;105725;1258;65133;-43
2023/07/09 00:31:15;;;;;;;5.10;1.50;;;;;;;18.46;100.00;100288.56;105697;1259;72644;-43
2023/07/09 00:33:43;;;;;;;2.60;1.50;;;;;;;18.47;100.00;100293.08;105755;1259;60555;-45
2023/07/09 00:36:14;;;;;;;3.40;1.50;;;;;;;18.47;100.00;100301.96;105670;1260;60421;-44
2023/07/09 00:38:47;;;;;;;1.90;1.40;;;;;;;18.45;100.00;100297.36;105687;1262;73809;-45
2023/07/09 00:41:21;;;;;;;1.60;1.50;;;;;;;18.43;100.00;100295.52;105656;1259;65148;-44
2023/07/09 00:43:49;;;;;;;2.70;1.30;;;;;;;18.42;100.00;100295.30;105652;1254;72667;-44
2023/07/09 00:46:20;;;;;;;3.80;1.50;;;;;;;18.40;100.00;100291.52;105668;1259;60579;-44
2023/07/09 00:49:08;;;;;;;2.90;1.80;;;;;;;18.38;100.00;100286.52;105642;1259;60356;-45
2023/07/09 00:51:41;;;;;;;2.90;1.40;;;;;;;18.35;100.00;100281.82;105803;1259;73804;-44
2023/07/09 00:54:18;;;;;;;1.50;1.40;;;;;;;18.31;100.00;100277.29;105783;1259;65216;-45
2023/07/09 00:56:46;;;;;;;6.90;1.60;;;;;;;18.28;100.00;100273.10;105701;1259;71407;-45
2023/07/09 00:59:15;;;;;;;3.00;1.60;;;;;;;18.22;100.00;100265.54;105624;1258;60857;-47
2023/07/09 01:01:43;;;;;;;1.90;1.70;;;;;;;18.17;100.00;100258.68;105791;1258;60414;-45
2023/07/09 01:04:11;;;;;;;3.70;1.70;;;;;;;18.11;100.00;100251.84;105630;1259;73858;-45
2023/07/09 01:06:43;;;;;;;2.10;1.50;;;;;;;18.07;100.00;100241.55;105633;1259;65147;-46
2023/07/09 01:09:10;;;;;;;2.70;1.40;;;;;;;18.02;100.00;100227.34;105644;1260;71774;-46
2023/07/09 01:11:38;;;;;;;4.40;1.60;;;;;;;17.98;100.00;100225.23;105593;1262;60527;-45
2023/07/09 01:14:07;;;;;;;2.50;1.90;;;;;;;17.94;100.00;100220.41;105680;1254;61319;-46
2023/07/09 01:16:42;;;;;;;7.50;2.00;;;;;;;17.90;100.00;100211.70;105709;1258;72577;-45
2023/07/09 01:19:13;;;;;;;5.50;2.00;;;;;;;17.88;100.00;100205.52;105757;1267;64007;-45
2023/07/09 01:21:42;;;;;;;2.70;1.50;;;;;;;17.85;100.00;100191.38;105636;1259;71387;-45
2023/07/09 01:24:14;;;;;;;2.10;1.60;;;;;;;17.82;100.00;100186.11;105622;1257;60645;-46
2023/07/09 01:26:43;;;;;;;4.40;2.00;;;;;;;17.80;100.00;100176.23;105710;1254;60523;-44
2023/07/09 01:29:12;;;;;;;7.50;1.90;;;;;;;17.79;100.00;100179.46;105677;1254;72549;-47
2023/07/09 01:31:40;;;;;;;2.30;1.90;;;;;;;17.76;100.00;100178.03;105655;1253;65151;-45
2023/07/09 01:34:08;;;;;;;3.60;1.80;;;;;;;17.75;100.00;100176.19;105629;1257;71389;-46
2023/07/09 01:36:39;;;;;;;3.80;1.90;;;;;;;17.73;100.00;100170.70;105599;1262;61793;-46
2023/07/09 01:39:07;;;;;;;2.70;1.80;;;;;;;17.72;100.00;100165.91;105657;1254;60581;-46
2023/07/09 01:41:34;;;;;;;2.50;2.00;;;;;;;17.70;100.00;100166.69;105645;1266;73866;-45
2023/07/09 01:44:02;;;;;;;3.60;2.20;;;;;;;17.69;100.00;100164.46;105627;1260;64259;-47
2023/07/09 01:46:30;;;;;;;5.90;2.60;;;;;;;17.68;100.00;100157.38;105455;1259;72287;-47
2023/07/09 01:48:58;;;;;;;8.90;2.50;;;;;;;17.66;100.00;100158.84;105633;1257;60496;-45
2023/07/09 01:51:28;;;;;;;5.00;2.40;;;;;;;17.65;100.00;100156.77;105567;1260;60819;-46
2023/07/09 01:53:55;;;;;;;4.00;2.60;;;;;;;17.64;100.00;100159.10;105657;1255;72617;-49
2023/07/09 01:56:24;;;;;;;2.60;2.20;;;;;;;17.64;100.00;100161.41;105614;1259;64039;-49
2023/07/09 01:58:51;;;;;;;7.20;2.30;;;;;;;17.65;100.00;100159.10;105574;1257;71422;-49
2023/07/09 02:01:19;;;;;;;9.80;2.30;;;;;;;17.66;100.00;100159.02;105587;1259;60466;-46
2023/07/09 02:03:47;;;;;;;2.30;2.10;;;;;;;17.66;100.00;100156.06;105662;1259;60358;-46
2023/07/09 02:06:15;;;;;;;3.50;2.60;;;;;;;17.66;100.00;100154.50;105616;1259;72604;-45
2023/07/09 02:08:43;;;;;;;3.00;2.80;;;;;;;17.66;100.00;100151.16;105629;1257;64246;-47
2023/07/09 02:11:10;;;;;;;5.90;3.10;;;;;;;17.67;100.00;100145.23;105628;1261;72667;-46
2023/07/09 02:13:38;;;;;;;4.70;2.70;;;;;;;17.67;100.00;100147.12;105614;1259;61661;-46
2023/07/09 02:16:05;;;;;;;4.30;3.40;;;;;;;17.69;100.00;100138.68;105576;1259;61689;-46
2023/07/09 02:18:34;;;;;;;5.70;3.20;;;;;;;17.69;100.00;100133.74;105630;1255;72625;-46
2023/07/09 02:21:01;;;;;;;6.50;3.60;;;;;;;17.71;100.00;100129.84;105628;1267;64338;-47
2023/07/09 02:23:29;;;;;;;7.80;3.60;;;;;;;17.73;100.00;100122.56;105603;1255;72690;-47
2023/07/09 02:25:58;;;;;;;8.40;4.40;;;;;;;17.75;100.00;100116.68;105586;1259;60477;-45
2023/07/09 02:28:26;;;;;;;5.00;4.60;;;;;;;17.76;100.00;100116.42;105623;1254;60399;-46
2023/07/09 02:30:54;;;;;;;5.50;3.70;;;;;;;17.78;100.00;100116.30;105617;1259;71632;-45
2023/07/09 02:33:22;;;;;;;5.20;4.10;;;;;;;17.80;100.00;100116.05;105615;1254;64091;-46
2023/07/09 02:35:49;;;;;;;6.40;4.60;;;;;;;17.83;100.00;100115.58;105630;1257;72648;-48
2023/07/09 02:38:17;;;;;;;5.50;5.00;;;;;;;17.86;100.00;100119.61;105620;1255;61703;-45
2023/07/09 02:40:45;;;;;;;7.60;4.80;;;;;;;17.88;100.00;100121.56;105590;1259;60357;-47
2023/07/09 02:43:13;;;;;;;5.00;4.60;;;;;;;17.90;100.00;100123.39;105668;1270;73801;-46
2023/07/09 02:45:42;;;;;;;7.60;5.20;;;;;;;17.93;100.00;100124.27;105691;1261;63833;-45
2023/07/09 02:48:11;;;;;;;5.80;5.30;;;;;;;17.96;100.00;100126.23;105620;1257;72642;-48
2023/07/09 02:50:39;;;;;;;6.20;5.30;;;;;;;17.96;100.00;100128.64;105605;1258;62278;-46
2023/07/09 02:53:07;;;;;;;6.50;5.70;;;;;;;17.97;100.00;100130.20;105635;1254;60368;-45
2023/07/09 02:55:35;;;;;;;7.90;5.70;;;;;;;17.97;100.00;100130.88;105596;1259;73775;-45
2023/07/09 02:58:03;;;;;;;5.90;5.30;;;;;;;17.97;100.00;100131.21;105613;1260;65227;-45
2023/07/09 03:00:31;;;;;;;5.90;5.30;;;;;;;17.97;100.00;100129.29;105622;1259;71703;-44
2023/07/09 03:03:00;;;;;;;7.80;5.50;;;;;;;17.98;100.00;100129.46;105585;1268;60546;-45
2023/07/09 03:05:28;;;;;;;12.00;6.20;;;;;;;17.98;100.00;100124.02;105671;1257;60579;-45
2023/07/09 03:07:56;;;;;;;13.20;6.30;;;;;;;17.99;100.00;100121.33;105631;1259;72657;-45
2023/07/09 03:10:23;;;;;;;7.20;6.10;;;;;;;17.98;100.00;100122.40;105617;1254;65249;-46
2023/07/09 03:12:52;;;;;;;9.80;6.30;;;;;;;17.97;100.00;100118.97;105589;1255;72610;-45
2023/07/09 03:15:19;;;;;;;7.50;6.50;;;;;;;17.98;100.00;100120.89;105604;1260;61610;-46
2023/07/09 03:17:47;;;;;;;11.10;6.30;;;;;;;17.98;100.00;100120.72;105607;1259;60521;-47
2023/07/09 03:20:15;;;;;;;9.40;6.40;;;;;;;17.98;100.00;100119.66;105595;1259;73974;-48
2023/07/09 03:22:43;;;;;;;12.20;6.40;;;;;;;17.96;100.00;100118.35;105712;1259;65252;-48
2023/07/09 03:25:10;;;;;;;7.00;6.10;;;;;;;17.94;100.00;100110.61;105600;1255;72600;-45
2023/07/09 03:27:38;;;;;;;10.90;6.80;;;;;;;17.93;100.00;100110.15;105616;1261;60619;-44
2023/07/09 03:30:06;;;;;;;9.50;6.70;;;;;;;17.90;100.00;100113.95;105589;1260;60509;-46
2023/07/09 03:32:34;;;;;;;6.70;5.80;;;;;;;17.89;100.00;100114.36;105626;1254;72572;-44
2023/07/09 03:35:01;;;;;;;10.70;6.70;;;;;;;17.88;100.00;100115.46;105632;1260;63938;-45
2023/07/09 03:37:29;;;;;;;7.60;6.40;;;;;;;17.87;100.00;100120.26;105594;1257;71389;-48
2023/07/09 03:39:57;;;;;;;9.20;6.40;;;;;;;17.86;100.00;100117.70;105622;1259;60721;-47
2023/07/09 03:42:25;;;;;;;11.30;6.70;;;;;;;17.85;100.00;100117.42;105644;1262;60459;-46
2023/07/09 03:44:52;;;;;;;13.20;6.60;;;;;;;17.84;100.00;100113.09;105655;1259;72564;-46
2023/07/09 03:47:20;;;;;;;12.60;6.40;;;;;;;17.84;100.00;100116.56;105593;1259;65251;-44
2023/07/09 03:49:48;;;;;;;11.50;5.80;;;;;;;17.82;100.00;100118.05;105287;1260;428080;-44
2023/07/09 03:55:03;;;;;;;8.70;6.70;;;;;;;17.80;100.00;100125.14;102875;1289;600322;-44
2023/07/09 03:57:31;;;;;;;7.90;6.10;;;;;;;17.75;100.00;100121.23;105087;1269;60427;-45
2023/07/09 03:59:59;;;;;;;9.40;6.70;;;;;;;17.74;100.00;100120.23;105121;1269;60032;-47
2023/07/09 04:02:27;;;;;;;9.80;6.70;;;;;;;17.74;100.00;100121.10;105101;1268;72226;-46
2023/07/09 04:04:54;;;;;;;8.20;5.90;;;;;;;17.72;100.00;100121.58;104911;1270;64516;-45
2023/07/09 04:07:23;;;;;;;11.00;5.90;;;;;;;17.70;100.00;100125.85;105105;1267;71364;-46
2023/07/09 04:09:50;;;;;;;7.70;6.00;;;;;;;17.68;100.00;100127.02;105039;1263;252591;-45
2023/07/09 04:12:18;;;;;;;11.90;5.70;;;;;;;17.66;100.00;100128.13;105135;1267;59321;-48
2023/07/09 04:14:45;;;;;;;10.60;5.90;;;;;;;17.64;100.00;100125.48;105153;1267;71907;-48
2023/07/09 04:17:13;;;;;;;15.30;6.10;;;;;;;17.62;100.00;100122.27;105134;1261;65301;-47
2023/07/09 04:19:40;;;;;;;7.90;6.00;;;;;;;17.63;100.00;100122.41;105147;1263;71628;-46
2023/07/09 04:22:10;;;;;;;12.00;6.60;;;;;;;17.64;100.00;100123.54;105177;1266;61640;-48
2023/07/09 04:24:38;;;;;;;9.20;5.50;;;;;;;17.64;100.00;100124.91;105184;1267;59615;-45
2023/07/09 04:27:06;;;;;;;8.10;6.20;;;;;;;17.64;100.00;100126.87;105167;1264;72984;-47
2023/07/09 04:29:38;;;;;;;6.80;6.10;;;;;;;17.63;100.00;100125.17;105673;1254;64258;-46
2023/07/09 04:32:07;;;;;;;9.80;5.20;;;;;;;17.62;100.00;100129.23;105699;1259;71408;-49
2023/07/09 04:34:35;;;;;;;8.20;5.80;;;;;;;17.62;100.00;100132.71;105709;1257;60405;-46
2023/07/09 04:37:03;;;;;;;8.60;6.10;;;;;;;17.61;100.00;100134.52;105648;1260;59658;-48
2023/07/09 04:39:31;;;;;;;7.30;6.30;;;;;;;17.59;100.00;100131.15;105657;1257;71826;-46
2023/07/09 04:41:59;;;;;;;6.90;5.30;;;;;;;17.59;100.00;100128.86;105618;1257;65223;-47
2023/07/09 04:44:27;;;;;;;10.10;5.40;;;;;;;17.58;100.00;100127.20;105628;1256;72676;-47
2023/07/09 04:46:54;;;;;;;11.80;5.80;;;;;;;17.59;100.00;100128.18;105555;1260;61649;-48
2023/07/09 04:49:22;;;;;;;6.90;5.70;;;;;;;17.61;100.00;100125.80;105536;1255;60044;-47
2023/07/09 04:51:49;;;;;;;12.80;5.90;;;;;;;17.64;100.00;100127.94;105586;1257;70868;-49
2023/07/09 04:54:17;;;;;;;6.60;5.40;;;;;;;17.67;100.00;100133.34;105534;1256;65232;-48
2023/07/09 04:56:44;;;;;;;6.70;5.70;;;;;;;17.70;100.00;100132.33;105593;1260;71354;-46
2023/07/09 04:59:12;;;;;;;12.60;5.50;;;;;;;17.71;100.00;100126.99;105539;1260;61697;-49
2023/07/09 05:01:40;;;;;;;6.30;5.40;;;;;;;17.73;100.00;100125.15;105519;1256;60128;-46
2023/07/09 05:04:08;;;;;;;6.20;5.60;;;;;;;17.73;100.00;100123.93;105583;1255;70836;-48
2023/07/09 05:06:35;;;;;;;8.60;5.90;;;;;;;17.73;100.00;100119.56;105532;1257;64269;-46
2023/07/09 05:09:03;;;;;;;7.70;5.80;;;;;;;17.74;100.00;100120.58;105534;1257;72437;-48
2023/07/09 05:11:35;;;;;;;7.30;6.00;;;;;;;17.74;100.00;100122.84;105567;1257;61822;-46
2023/07/09 05:14:03;;;;;;;6.70;5.50;;;;;;;17.74;100.00;100123.52;105534;1257;59638;-49
2023/07/09 05:16:30;;;;;;;8.20;5.40;;;;;;;17.77;100.00;100127.02;105544;1256;72034;-47
2023/07/09 05:18:58;;;;;;;9.10;5.70;;;;;;;17.80;100.00;100129.48;105547;1257;63933;-46
2023/07/09 05:21:26;;;;;;;6.70;6.00;;;;;;;17.84;100.00;100132.47;105566;1257;71705;-47
2023/07/09 05:23:53;;;;;;;6.80;5.80;;;;;;;17.82;100.00;100128.52;105505;1256;60004;-46
2023/07/09 05:26:21;;;;;;;12.30;6.70;;;;;;;17.86;100.00;100130.77;105518;1260;59552;-48
2023/07/09 05:28:49;;;;;;;8.10;5.70;;;;;;;17.87;100.00;100129.48;105526;1256;71997;-49
2023/07/09 05:31:17;;;;;;;9.00;5.00;;;;;;;17.91;100.00;100132.74;105515;1257;64668;-49
2023/07/09 05:33:45;;;;;;;11.00;5.90;;;;;;;17.96;100.00;100134.25;105528;1257;71653;-46
2023/07/09 05:36:15;;;;;;;9.10;5.70;;;;;;;17.98;100.00;100139.38;105634;1257;60422;-46
2023/07/09 05:38:43;;;;;;;7.30;6.20;;;;;;;17.95;100.00;100140.23;105686;1257;59688;-46
2023/07/09 05:41:11;;;;;;;9.80;6.20;;;;;;;17.95;100.00;100136.54;105855;1255;71775;-48
2023/07/09 05:43:38;;;;;;;7.90;5.90;;;;;;;18.00;100.00;100139.77;105681;1253;65265;-48
2023/07/09 05:46:06;;;;;;;11.90;8.70;;;;;;;18.03;100.00;100141.38;105650;1257;71695;-47
2023/07/09 05:48:33;;;;;;;17.20;6.80;;;;;;;18.01;100.00;100145.67;105676;1253;60082;-47
2023/07/09 05:51:01;;;;;;;18.50;8.90;;;;;;;18.03;100.00;100141.57;105822;1253;59958;-48
2023/07/09 05:53:29;;;;;;;23.00;9.60;;;;;;;18.08;100.00;100142.51;105689;1253;71850;-47
2023/07/09 05:55:56;;;;;;;11.70;7.30;;;;;;;18.16;100.00;100145.39;105800;1253;64514;-48
2023/07/09 05:58:24;;;;;;;12.70;6.20;;;;;;;18.21;100.00;100144.25;105678;1253;71162;-46
2023/07/09 06:00:53;;;;;;;10.40;6.30;;;;;;;18.27;100.00;100150.91;105803;1253;59729;-46
2023/07/09 06:03:21;;;;;;;7.50;6.50;;;;;;;18.33;100.00;100152.32;105714;1253;59552;-45
2023/07/09 06:05:49;;;;;;;9.40;6.70;;;;;;;18.40;100.00;100154.56;105872;1252;71809;-46
2023/07/09 06:08:18;;;;;;;9.60;6.40;;;;;;;18.46;100.00;100159.46;105678;1257;64237;-47
2023/07/09 06:10:59;;;;;;;11.20;6.20;;;;;;;18.53;100.00;100173.56;105679;1257;71370;-48
2023/07/09 06:13:30;;;;;;;10.10;5.40;;;;;;;18.57;100.00;100180.86;105715;1253;60704;-46
2023/07/09 06:15:59;;;;;;;8.00;5.70;;;;;;;18.63;100.00;100188.74;105716;1255;59634;-46
2023/07/09 06:18:29;;;;;;;8.80;5.20;;;;;;;18.72;100.00;100195.77;105694;1257;73037;-48
2023/07/09 06:20:59;;;;;;;5.90;5.30;;;;;;;18.81;100.00;100207.15;105660;1254;63925;-48
2023/07/09 06:23:27;;;;;;;9.20;5.40;;;;;;;18.86;100.00;100226.13;105716;1253;71441;-48
2023/07/09 06:25:55;;;;;;;7.10;5.20;;;;;;;18.85;100.00;100235.80;105686;1257;60410;-47
2023/07/09 06:28:24;;;;;;;5.80;5.20;;;;;;;18.85;100.00;100254.46;105748;1254;59720;-46
2023/07/09 06:30:52;;;;;;;6.00;5.20;;;;;;;18.79;100.00;100278.73;105699;1253;71758;-47
2023/07/09 06:33:20;;;;;;;17.70;8.80;;;;;;;18.71;100.00;100301.71;105706;1257;63907;-46
2023/07/09 06:35:49;;;;;;;13.30;7.80;;;;;;;18.67;100.00;100329.00;105696;1253;74916;-46
2023/07/09 06:38:17;;;;;;;9.20;6.10;;;;;;;18.67;100.00;100351.40;105697;1257;61636;-47
2023/07/09 06:40:45;;;;;;;8.70;6.40;;;;;;;18.66;100.00;100373.61;105896;1254;59975;-48
2023/07/09 06:43:12;;;;;;;10.70;7.40;;;;;;;18.62;100.00;100394.46;105678;1253;73039;-46
2023/07/09 06:45:55;;;;;;;15.10;6.40;;;;;;;18.57;100.00;100414.66;105611;1253;65360;-48
2023/07/09 06:48:23;;;;;;;7.80;5.70;;;;;;;18.59;100.00;100428.02;105712;1253;72707;-45
2023/07/09 06:50:52;;;;;;;16.50;6.40;;;;;;;18.64;100.00;100438.73;105807;1257;60439;-47
2023/07/09 06:53:21;;;;;;;8.50;5.30;;;;;;;18.72;100.00;100447.61;105725;1256;59975;-46
2023/07/09 06:55:49;;;;;;;9.60;6.10;;;;;;;18.82;100.00;100448.66;105699;1253;71799;-47
2023/07/09 06:58:17;;;;;;;11.50;6.10;;;;;;;18.81;100.00;100464.42;105695;1257;64037;-47
2023/07/09 07:00:45;;;;;;;6.70;5.90;;;;;;;18.76;100.00;100480.93;105865;1253;71344;-45
2023/07/09 07:03:13;;;;;;;11.40;5.80;;;;;;;18.74;100.00;100494.33;105747;1254;60474;-46
2023/07/09 07:05:44;;;;;;;9.00;5.40;;;;;;;18.78;100.00;100507.39;105660;1257;59558;-46
2023/07/09 07:08:14;;;;;;;10.40;5.70;;;;;;;18.85;100.00;100511.10;105697;1257;73014;-47
2023/07/09 07:10:42;;;;;;;9.80;6.30;;;;;;;18.89;100.00;100524.33;105704;1253;65210;-47
2023/07/09 07:13:11;;;;;;;12.10;6.30;;;;;;;18.93;100.00;100532.66;105825;1257;71419;-46
2023/07/09 07:15:38;;;;;;;7.70;5.30;;;;;;;18.92;100.00;100542.16;105683;1254;60432;-47
2023/07/09 07:18:06;;;;;;;7.80;5.60;;;;;;;18.91;100.00;100555.17;105852;1257;59744;-46
2023/07/09 07:20:35;;;;;;;14.80;6.50;;;;;;;18.89;100.00;100566.82;105893;1256;72984;-46
2023/07/09 07:23:03;;;;;;;10.90;5.90;;;;;;;18.88;100.00;100577.02;105720;1254;64053;-47
2023/07/09 07:25:32;;;;;;;9.70;5.60;;;;;;;18.86;100.00;100576.95;105746;1253;71683;-46
2023/07/09 07:27:59;;;;;;;10.80;5.80;;;;;;;18.84;100.00;100589.83;105782;1253;61666;-45
2023/07/09 07:30:28;;;;;;;6.40;5.80;;;;;;;18.87;100.00;100588.62;105690;1258;59549;-44
2023/07/09 07:32:55;;;;;;;9.50;6.90;;;;;;;18.91;100.00;100588.71;105724;1253;71784;-45
2023/07/09 07:35:23;;;;;;;13.90;10.60;;;;;;;18.99;100.00;100589.58;105673;1257;64032;-45
2023/07/09 07:37:51;;;;;;;11.20;6.30;;;;;;;19.05;100.00;100591.71;105676;1253;71413;-47
2023/07/09 07:40:18;;;;;;;10.00;5.60;;;;;;;19.08;100.00;100596.65;105814;1252;60272;-45
2023/07/09 07:42:47;;;;;;;9.90;5.40;;;;;;;19.16;100.00;100606.39;105699;1256;60022;-46
2023/07/09 07:45:14;;;;;;;6.90;4.80;;;;;;;19.27;100.00;100610.90;105689;1253;71849;-47
2023/07/09 07:47:43;;;;;;;9.20;4.50;;;;;;;19.32;100.00;100620.58;105778;1253;65146;-47
2023/07/09 07:50:11;;;;;;;5.70;5.10;;;;;;;19.34;100.00;100631.67;105692;1253;71712;-48
2023/07/09 07:52:38;;;;;;;7.10;5.70;;;;;;;19.33;100.00;100639.06;105660;1257;61673;-46
2023/07/09 07:55:07;;;;;;;8.40;5.40;;;;;;;19.37;100.00;100642.04;105686;1251;60007;-46
2023/07/09 07:57:37;;;;;;;9.00;7.20;;;;;;;19.48;100.00;100648.30;105656;1253;71731;-45
2023/07/09 08:00:05;;;;;;;10.10;6.50;;;;;;;19.61;100.00;100652.17;105677;1251;63709;-47
2023/07/09 08:02:38;;;;;;;7.20;5.10;;;;;;;19.73;100.00;100644.85;105703;1253;71682;-46
2023/07/09 08:05:06;;;;;;;9.30;5.10;;;;;;;19.93;100.00;100641.70;105713;1253;60485;-45
2023/07/09 08:07:34;;;;;;;7.30;5.30;;;;;;;20.14;100.00;100639.89;105690;1251;60368;-47
2023/07/09 08:10:02;;;;;;;4.80;4.20;;;;;;;20.30;100.00;100623.70;105765;1257;73840;-46
2023/07/09 08:12:30;;;;;;;4.90;4.50;;;;;;;20.45;100.00;100617.48;105817;1253;64450;-50
2023/07/09 08:14:57;;;;;;;9.40;4.60;;;;;;;20.48;100.00;100578.36;105698;1253;71447;-46
2023/07/09 08:17:25;;;;;;;11.20;4.70;;;;;;;20.39;100.00;100496.72;105675;1253;60858;-47
2023/07/09 08:19:54;;;;;;;8.20;4.60;;;;;;;20.28;100.00;100437.26;105846;1257;60448;-46
2023/07/09 08:22:22;;;;;;;7.90;4.50;;;;;;;20.21;100.00;100420.84;105727;1256;73781;-45
2023/07/09 08:24:49;;;;;;;7.30;4.60;;;;;;;20.20;100.00;100426.84;105847;1257;65229;-46
2023/07/09 08:27:18;;;;;;;5.30;4.10;;;;;;;20.23;100.00;100427.94;105688;1254;72673;-47
2023/07/09 08:29:46;;;;;;;6.10;4.80;;;;;;;20.30;100.00;100422.79;105874;1257;60593;-47
2023/07/09 08:32:14;;;;;;;9.60;4.50;;;;;;;20.30;100.00;100401.55;105911;1253;60448;-47
2023/07/09 08:34:41;;;;;;;6.40;4.40;;;;;;;20.30;100.00;100376.70;105714;1251;73819;-46
2023/07/09 08:37:29;;;;;;;8.20;4.40;;;;;;;20.34;100.00;100364.19;105670;1252;65343;-47
2023/07/09 08:39:57;;;;;;;5.80;3.90;;;;;;;20.41;100.00;100357.66;105777;1253;71400;-45
2023/07/09 08:42:31;;;;;;;7.80;4.50;;;;;;;20.45;100.00;100314.65;105844;1253;61607;-46
2023/07/09 08:45:46;;;;;;;6.80;4.60;;;;;;;20.50;100.00;100282.41;105688;1251;60533;-46
2023/07/09 08:48:29;;;;;;;6.90;4.70;;;;;;;20.51;100.00;100220.88;105705;1251;72823;-47
2023/07/09 08:51:03;;;;;;;12.50;4.50;;;;;;;20.54;100.00;100218.55;105748;1253;65158;-47
2023/07/09 08:53:44;;;;;;;;;;;;;;;20.66;100.00;100223.73;105759;1257;72190;-46
2023/07/09 08:56:12;;;;;;;7.90;4.00;;;;;;;20.84;100.00;100191.77;105690;1258;60450;-46
2023/07/09 08:58:39;;;;;;;5.20;4.20;;;;;;;20.98;100.00;100126.89;105669;1258;60745;-47
2023/07/09 09:01:19;;;;;;;8.90;3.80;;;;;;;21.06;100.00;100052.11;105855;1257;73815;-44
2023/07/09 09:04:10;;;;;;;4.90;3.70;;;;;;;21.18;100.00;99984.09;105682;1251;64051;-45
2023/07/09 09:06:38;;;;;;;9.00;3.70;;;;;;;21.31;100.00;99844.26;105669;1252;73156;-46
2023/07/09 09:09:26;;;;;;;6.70;3.30;;;;;;;21.36;100.00;99821.11;105706;1257;61757;-46
2023/07/09 09:12:04;;;;;;;11.10;3.80;;;;;;;21.40;100.00;99800.40;105876;1256;60461;-48
2023/07/09 09:14:34;;;;;;;7.00;3.50;;;;;;;21.43;100.00;99780.92;105767;1251;72628;-46
2023/07/09 09:17:02;;;;;;;9.20;3.60;;;;;;;21.42;100.00;99777.45;105532;1251;65147;-47
2023/07/09 09:19:37;;;;;;;6.60;3.60;;;;;;;21.50;100.00;99782.81;105698;1257;72601;-45
2023/07/09 09:22:08;;;;;;;7.30;4.00;;;;;;;21.59;100.00;99780.98;105709;1255;60574;-46
2023/07/09 09:24:37;;;;;;;8.40;3.40;;;;;;;21.61;100.00;99778.90;105690;1257;60455;-46
2023/07/09 09:27:05;;;;;;;4.50;3.30;;;;;;;21.63;100.00;99783.46;105891;1251;72624;-46
2023/07/09 09:29:32;;;;;;;8.90;3.70;;;;;;;21.68;100.00;99787.33;105725;1253;65266;-45
2023/07/09 09:32:03;;;;;;;7.00;3.30;;;;;;;21.79;100.00;99791.92;105662;1251;73060;-45
2023/07/09 09:34:30;;;;;;;10.80;3.20;;;;;;;21.87;100.00;99790.86;105875;1256;60387;-45
2023/07/09 09:36:58;;;;;;;7.40;3.10;;;;;;;21.87;100.00;99793.80;105663;1257;60368;-44
2023/07/09 09:39:26;;;;;;;13.00;3.20;;;;;;;21.90;100.00;99798.50;105712;1251;72662;-48
2023/07/09 09:41:55;;;;;;;6.80;2.90;;;;;;;21.99;100.00;99800.99;105708;1251;64362;-45
2023/07/09 09:44:27;;;;;;;6.30;3.20;;;;;;;22.06;100.00;99804.98;105720;1253;72650;-45
2023/07/09 09:46:58;;;;;;;9.80;3.20;;;;;;;22.17;100.00;99807.87;105732;1251;60447;-47
2023/07/09 09:49:27;;;;;;;7.30;3.20;;;;;;;22.30;100.00;99822.12;105738;1256;60375;-44
2023/07/09 09:51:58;;;;;;;7.50;2.90;;;;;;;22.45;100.00;99826.61;105722;1251;72576;-44
2023/07/09 09:54:27;;;;;;;5.70;3.10;;;;;;;22.68;100.00;99822.03;105851;1254;63990;-45
2023/07/09 09:56:55;;;;;;;3.90;3.30;;;;;;;22.90;100.00;99838.38;105705;1258;71390;-44
2023/07/09 09:59:32;;;;;;;3.50;2.90;;;;;;;23.11;100.00;99843.07;105852;1254;60557;-44
2023/07/09 10:02:02;;;;;;;6.40;2.90;;;;;;;23.22;100.00;99853.40;105794;1254;60394;-46
2023/07/09 10:04:30;;;;;;;6.40;3.60;;;;;;;23.31;100.00;99863.64;105777;1258;73859;-46
2023/07/09 10:07:05;;;;;;;6.70;3.40;;;;;;;23.49;100.00;99874.00;105864;1253;64001;-47
2023/07/09 10:09:53;;;;;;;4.70;2.80;;;;;;;23.69;100.00;99894.16;105686;1253;72610;-47
2023/07/09 10:12:43;;;;;;;12.50;3.00;;;;;;;23.90;100.00;99943.76;105687;1253;60588;-45
2023/07/09 10:15:17;;;;;;;6.40;3.80;;;;;;;24.15;100.00;99960.73;105734;1255;60461;-45
2023/07/09 10:17:57;;;;;;;4.00;2.60;;;;;;;24.27;100.00;100004.67;105770;1257;72862;-48
2023/07/09 10:20:32;;;;;;;3.90;2.60;;;;;;;24.13;100.00;100053.79;105937;1253;64295;-44
2023/07/09 10:23:09;;;;;;;7.00;2.60;;;;;;;24.04;100.00;100062.83;105764;1254;72674;-44
2023/07/09 10:26:35;;;;;;;7.80;6.40;;;;;;;24.00;100.00;100093.56;105820;1259;60822;-45
2023/07/09 10:29:30;;;;;;;10.70;5.90;;;;;;;23.95;100.00;100103.51;105537;1261;60404;-46
2023/07/09 10:32:22;;;;;;;6.50;4.70;;;;;;;23.99;100.00;100112.14;105499;1256;72651;-48
2023/07/09 10:35:07;;;;;;;7.80;3.50;;;;;;;24.08;100.00;100111.61;105447;1252;63951;-45
2023/07/09 10:37:35;;;;;;;3.60;3.10;;;;;;;24.16;100.00;100095.52;105702;1254;72631;-47
2023/07/09 10:40:03;;;;;;;6.20;3.00;;;;;;;24.17;100.00;100112.71;105911;1254;60556;-43
2023/07/09 10:42:40;;;;;;;4.10;2.40;;;;;;;24.23;100.00;100116.92;105708;1258;60935;-45
2023/07/09 10:45:09;;;;;;;8.70;2.70;;;;;;;24.38;100.00;100116.67;105750;1252;73831;-45
2023/07/09 10:47:45;;;;;;;12.00;2.80;;;;;;;24.49;100.00;100116.45;105724;1253;65163;-46
2023/07/09 10:50:34;;;;;;;4.80;2.30;;;;;;;24.62;91.83;100070.39;105718;1258;72597;-45
2023/07/09 10:53:14;;;;;;;4.90;2.20;;;;;;;24.56;77.44;100052.95;105737;1253;60565;-44
2023/07/09 10:56:09;;;;;;;3.80;2.40;;;;;;;24.30;75.04;100071.23;105736;1258;60433;-44
2023/07/09 10:59:16;;;;;;;3.30;2.50;;;;;;;24.06;73.98;100087.27;105821;1253;72590;-45
2023/07/09 11:01:47;;;;;;;5.40;2.40;;;;;;;23.94;72.79;100093.17;105267;1261;64004;-44
2023/07/09 11:04:38;;;;;;;5.00;2.90;;;;;;;23.99;75.27;100120.24;105659;1254;71376;-43
2023/07/09 11:07:10;;;;;;;8.30;2.90;;;;;;;24.10;78.66;100138.77;105805;1254;60549;-45
2023/07/09 11:09:41;;;;;;;2.70;2.30;;;;;;;24.21;81.94;100148.30;105805;1257;60503;-46
2023/07/09 11:12:29;;;;;;;12.20;2.40;;;;;;;24.42;76.35;100104.01;105754;1257;74181;-45
2023/07/09 11:15:08;;;;;;;8.50;2.50;;;;;;;24.45;75.10;100106.20;105795;1258;64246;-44
2023/07/09 11:17:38;;;;;;;7.00;2.40;;;;;;;24.50;75.08;100116.91;105767;1253;72685;-45
2023/07/09 11:20:32;;;;;;;4.20;2.20;;;;;;;24.53;75.91;100127.20;105764;1256;60536;-45
2023/07/09 11:23:15;;;;;;;3.40;2.30;;;;;;;24.68;77.29;100134.98;105770;1258;60551;-45
2023/07/09 11:25:45;;;;;;;5.50;2.30;;;;;;;24.83;77.31;100131.30;105725;1259;73845;-46
2023/07/09 11:28:12;;;;;;;3.90;2.10;;;;;;;24.95;75.91;100120.45;105900;1257;65348;-43